createdAt,value
2023-01-13T00:01:28.861Z,97281.66
2023-01-13T00:03:56.621Z,97275.97
2023-01-13T00:06:29.087Z,97272.44
2023-01-13T00:08:55.832Z,97270.31
2023-01-13T00:11:23.330Z,97267.03
2023-01-13T00:13:50.150Z,97271.41
2023-01-13T00:16:18.515Z,97266.47
2023-01-13T00:18:46.124Z,97272.47
2023-01-13T00:21:22.914Z,97273.31
2023-01-13T00:23:52.341Z,97258.28
2023-01-13T00:26:23.689Z,97259.53
2023-01-13T00:28:50.456Z,97256.38
2023-01-13T00:31:21.022Z,97243.66
2023-01-13T00:33:49.207Z,97247.91
2023-01-13T00:36:19.369Z,97246.56
2023-01-13T00:38:47.625Z,97244.91
2023-01-13T00:41:21.709Z,97242.66
2023-01-13T00:43:49.578Z,97246.88
2023-01-13T00:46:20.456Z,97241.94
2023-01-13T00:48:49.562Z,97242.78
2023-01-13T00:51:19.529Z,97235.81
2023-01-13T00:53:49.863Z,97242.78
2023-01-13T00:56:38.580Z,97235.09
2023-01-13T00:59:07.875Z,97236.50
2023-01-13T01:01:34.703Z,97222.00
2023-01-13T01:04:01.488Z,97226.50
2023-01-13T01:06:28.443Z,97219.13
2023-01-13T01:08:56.646Z,97221.59
2023-01-13T01:11:29.784Z,97218.31
2023-01-13T01:13:59.675Z,97222.00
2023-01-13T01:16:29.498Z,97216.34
2023-01-13T01:18:57.421Z,97213.88
2023-01-13T01:21:27.730Z,97215.09
2023-01-13T01:23:55.710Z,97218.63
2023-01-13T01:26:25.664Z,97210.38
2023-01-13T01:28:53.611Z,97206.66
2023-01-13T01:31:23.920Z,97220.56
2023-01-13T01:33:51.160Z,97210.28
2023-01-13T01:36:20.016Z,97205.72
2023-01-13T01:38:48.450Z,97215.53
2023-01-13T01:41:22.360Z,97214.25
2023-01-13T01:44:16.014Z,97218.13
2023-01-13T01:46:44.928Z,97210.72
2023-01-13T01:49:33.337Z,97202.47
2023-01-13T01:52:16.684Z,97189.75
2023-01-13T01:55:13.604Z,97193.56
2023-01-13T01:57:49.607Z,97186.00
2023-01-13T02:00:16.601Z,97178.34
2023-01-13T02:02:49.727Z,97186.25
2023-01-13T02:05:17.105Z,97173.78
2023-01-13T02:07:47.735Z,97173.09
2023-01-13T02:10:19.683Z,97175.78
2023-01-13T02:12:49.029Z,97166.75
2023-01-13T02:15:34.947Z,97171.34
2023-01-13T02:18:53.408Z,97177.38
2023-01-13T02:21:48.401Z,97162.16
2023-01-13T02:24:54.125Z,97153.56
2023-01-13T02:27:47.794Z,97151.22
2023-01-13T02:31:01.424Z,97150.25
2023-01-13T02:34:07.196Z,97152.50
2023-01-13T02:36:59.956Z,97150.00
2023-01-13T02:39:47.030Z,97150.72
2023-01-13T02:42:53.254Z,97144.59
2023-01-13T02:45:29.997Z,97150.22
2023-01-13T02:47:59.374Z,97139.00
2023-01-13T02:50:38.999Z,97143.94
2023-01-13T02:53:16.173Z,97135.34
2023-01-13T02:55:54.145Z,97142.03
2023-01-13T02:58:28.827Z,97145.81
2023-01-13T03:00:55.837Z,97135.72
2023-01-13T03:03:22.875Z,97128.41
2023-01-13T03:05:59.784Z,97127.31
2023-01-13T03:08:32.228Z,97125.41
2023-01-13T03:11:15.958Z,97123.97
2023-01-13T03:14:21.668Z,97125.88
2023-01-13T03:17:20.093Z,97109.47
2023-01-13T03:20:05.926Z,97104.16
2023-01-13T03:22:45.928Z,97110.22
2023-01-13T03:25:32.177Z,97109.38
2023-01-13T03:28:08.572Z,97113.25
2023-01-13T03:30:44.508Z,97119.41
2023-01-13T03:33:25.378Z,97115.53
2023-01-13T03:35:58.894Z,97118.38
2023-01-13T03:38:38.159Z,97118.91
2023-01-13T03:41:17.159Z,97101.09
2023-01-13T03:44:13.320Z,97116.38
2023-01-13T03:46:54.867Z,97123.69
2023-01-13T03:49:26.458Z,97112.06
2023-01-13T03:52:01.559Z,97125.03
2023-01-13T03:54:33.663Z,97110.56
2023-01-13T03:57:12.004Z,97114.31
2023-01-13T03:59:46.328Z,97117.19
2023-01-13T04:02:54.373Z,97116.22
2023-01-13T04:05:21.824Z,97112.13
2023-01-13T04:08:28.522Z,97110.59
2023-01-13T04:11:14.415Z,97106.38
2023-01-13T04:13:45.555Z,97114.28
2023-01-13T04:16:13.280Z,97109.09
2023-01-13T04:18:40.388Z,97104.03
2023-01-13T04:21:09.464Z,97110.13
2023-01-13T04:23:36.210Z,97116.28
2023-01-13T04:26:03.489Z,97119.59
2023-01-13T04:28:30.189Z,97118.03
2023-01-13T04:30:57.670Z,97120.06
2023-01-13T04:33:24.651Z,97111.59
2023-01-13T04:35:52.583Z,97118.69
2023-01-13T04:38:21.453Z,97114.19
2023-01-13T04:40:48.571Z,97110.91
2023-01-13T04:43:16.011Z,97108.31
2023-01-13T04:45:43.429Z,97108.31
2023-01-13T04:48:11.087Z,97104.50
2023-01-13T04:50:37.804Z,97100.97
2023-01-13T04:53:04.736Z,97101.91
2023-01-13T04:55:32.038Z,97108.50
2023-01-13T04:58:16.754Z,97114.63
2023-01-13T05:00:44.105Z,97106.97
2023-01-13T05:03:10.976Z,97113.47
2023-01-13T05:05:38.055Z,97111.00
2023-01-13T05:08:05.494Z,97114.41
2023-01-13T05:10:32.319Z,97114.41
2023-01-13T05:13:17.714Z,97109.09
2023-01-13T05:16:05.179Z,97110.72
2023-01-13T05:18:33.414Z,97116.47
2023-01-13T05:21:00.113Z,97125.31
2023-01-13T05:23:45.860Z,97117.03
2023-01-13T05:26:12.637Z,97109.25
2023-01-13T05:28:39.339Z,97115.88
2023-01-13T05:31:06.199Z,97109.13
2023-01-13T05:33:34.970Z,97114.91
2023-01-13T05:36:04.180Z,97117.75
2023-01-13T05:38:31.002Z,97121.19
2023-01-13T05:41:19.002Z,97111.25
2023-01-13T05:43:45.990Z,97111.69
2023-01-13T05:46:12.839Z,97129.84
2023-01-13T05:48:42.756Z,97117.94
2023-01-13T05:51:12.388Z,97123.69
2023-01-13T05:53:40.768Z,97108.13
2023-01-13T05:56:09.394Z,97120.41
2023-01-13T05:58:36.548Z,97118.50
2023-01-13T06:01:07.349Z,97098.69
2023-01-13T06:03:34.747Z,97116.13
2023-01-13T06:06:03.762Z,97108.47
2023-01-13T06:08:31.828Z,97105.03
2023-01-13T06:10:58.666Z,97107.81
2023-01-13T06:13:25.676Z,97107.63
2023-01-13T06:15:57.517Z,97102.72
2023-01-13T06:18:24.514Z,97096.78
2023-01-13T06:20:51.315Z,97097.75
2023-01-13T06:23:18.914Z,97102.94
2023-01-13T06:26:23.696Z,97105.91
2023-01-13T06:28:50.412Z,97107.25
2023-01-13T06:31:18.906Z,97105.50
2023-01-13T06:33:53.335Z,97106.31
2023-01-13T06:36:30.833Z,97104.47
2023-01-13T06:39:01.685Z,97103.06
2023-01-13T06:41:51.581Z,97104.94
2023-01-13T06:44:20.552Z,97112.28
2023-01-13T06:46:47.814Z,97113.94
2023-01-13T06:49:14.582Z,97106.41
2023-01-13T06:51:41.271Z,97103.25
2023-01-13T06:54:08.682Z,97107.09
2023-01-13T06:56:35.465Z,97109.97
2023-01-13T06:59:02.390Z,97107.84
2023-01-13T07:01:29.802Z,97113.28
2023-01-13T07:03:58.058Z,97101.41
2023-01-13T07:06:24.908Z,97107.41
2023-01-13T07:08:51.703Z,97113.53
2023-01-13T07:11:18.624Z,97116.13
2023-01-13T07:14:03.623Z,97107.78
2023-01-13T07:16:30.403Z,97106.72
2023-01-13T07:18:57.177Z,97106.03
2023-01-13T07:21:23.905Z,97109.44
2023-01-13T07:23:50.654Z,97111.19
2023-01-13T07:26:17.419Z,97123.47
2023-01-13T07:28:44.451Z,97124.88
2023-01-13T07:31:18.683Z,97114.50
2023-01-13T07:33:45.715Z,97118.72
2023-01-13T07:36:13.572Z,97112.72
2023-01-13T07:38:40.990Z,97122.97
2023-01-13T07:41:26.057Z,97113.41
2023-01-13T07:43:52.803Z,97103.84
2023-01-13T07:46:19.651Z,97108.91
2023-01-13T07:48:48.826Z,97108.66
2023-01-13T07:51:15.675Z,97106.19
2023-01-13T07:53:42.438Z,97104.28
2023-01-13T07:56:09.395Z,97099.31
2023-01-13T07:58:37.081Z,97098.63
2023-01-13T08:01:13.559Z,97106.28
2023-01-13T08:03:41.061Z,97099.88
2023-01-13T08:06:09.377Z,97106.84
2023-01-13T08:08:36.495Z,97108.50
2023-01-13T08:11:07.024Z,97104.03
2023-01-13T08:13:33.811Z,97105.53
2023-01-13T08:16:08.179Z,97107.06
2023-01-13T08:18:36.313Z,97104.19
2023-01-13T08:21:07.692Z,97105.63
2023-01-13T08:23:35.124Z,97112.69
2023-01-13T08:26:05.245Z,97107.25
2023-01-13T08:28:32.601Z,97111.25
2023-01-13T08:31:02.478Z,97118.06
2023-01-13T08:33:30.001Z,97114.53
2023-01-13T08:35:57.686Z,97116.31
2023-01-13T08:38:25.351Z,97103.06
2023-01-13T08:40:52.483Z,97098.06
2023-01-13T08:43:22.333Z,97106.69
2023-01-13T08:46:01.994Z,97107.25
2023-01-13T08:48:31.478Z,97123.44
2023-01-13T08:51:07.240Z,97104.44
2023-01-13T08:53:34.299Z,97108.41
2023-01-13T08:56:01.175Z,97111.00
2023-01-13T08:58:28.260Z,97106.47
2023-01-13T09:00:55.203Z,97108.97
2023-01-13T09:03:22.170Z,97109.41
2023-01-13T09:05:48.966Z,97107.63
2023-01-13T09:08:15.744Z,97125.03
2023-01-13T09:10:42.632Z,97126.00
2023-01-13T09:13:13.909Z,97126.22
2023-01-13T09:15:49.881Z,97126.16
2023-01-13T09:18:16.833Z,97119.84
2023-01-13T09:20:44.630Z,97126.00
2023-01-13T09:23:11.714Z,97131.88
2023-01-13T09:25:39.735Z,97136.41
2023-01-13T09:28:08.075Z,97133.19
2023-01-13T09:30:35.043Z,97125.66
2023-01-13T09:33:20.028Z,97132.81
2023-01-13T09:35:46.901Z,97121.47
2023-01-13T09:38:13.815Z,97126.66
2023-01-13T09:40:43.707Z,97127.50
2023-01-13T09:43:53.576Z,97139.25
2023-01-13T09:46:44.326Z,97140.97
2023-01-13T09:49:25.600Z,97150.34
2023-01-13T09:52:27.088Z,97153.81
2023-01-13T09:55:14.223Z,97167.47
2023-01-13T09:57:41.366Z,97180.88
2023-01-13T10:00:28.648Z,97179.66
2023-01-13T10:03:19.765Z,97194.34
2023-01-13T10:06:18.379Z,97206.13
2023-01-13T10:08:47.812Z,97196.72
2023-01-13T10:11:40.092Z,97206.06
2023-01-13T10:14:26.029Z,97224.94
2023-01-13T10:17:15.221Z,97208.94
2023-01-13T10:19:51.390Z,97207.38
2023-01-13T10:22:39.503Z,97232.88
2023-01-13T10:25:26.915Z,97231.47
2023-01-13T10:28:01.375Z,97231.47
2023-01-13T10:30:36.501Z,97215.34
2023-01-13T10:33:12.140Z,97228.91
2023-01-13T10:35:59.822Z,97244.69
2023-01-13T10:38:35.478Z,97247.28
2023-01-13T10:41:06.096Z,97249.63
2023-01-13T10:43:32.975Z,97231.72
2023-01-13T10:46:10.105Z,97234.44
2023-01-13T10:48:58.435Z,97242.44
2023-01-13T10:51:43.377Z,97245.16
2023-01-13T10:54:13.119Z,97249.88
2023-01-13T10:56:43.862Z,97241.41
2023-01-13T10:59:26.855Z,97239.25
2023-01-13T11:02:25.408Z,97224.66
2023-01-13T11:04:53.078Z,97213.47
2023-01-13T11:07:52.441Z,97207.47
2023-01-13T11:10:27.047Z,97221.13
2023-01-13T11:13:14.214Z,97224.19
2023-01-13T11:16:01.479Z,97235.47
2023-01-13T11:19:11.977Z,97217.91
2023-01-13T11:21:57.973Z,97219.22
2023-01-13T11:24:39.933Z,97215.41
2023-01-13T11:27:41.206Z,97221.56
2023-01-13T11:30:29.696Z,97216.25
2023-01-13T11:33:16.831Z,97210.34
2023-01-13T11:36:08.006Z,97214.13
2023-01-13T11:38:47.640Z,97221.31
2023-01-13T11:41:43.432Z,97209.75
2023-01-13T11:44:17.030Z,97214.66
2023-01-13T11:46:44.108Z,97212.59
2023-01-13T11:49:26.122Z,97221.38
2023-01-13T11:52:28.001Z,97212.78
2023-01-13T11:55:00.467Z,97219.03
2023-01-13T11:57:38.667Z,97224.22
2023-01-13T12:00:17.089Z,97227.91
2023-01-13T12:03:14.486Z,97211.63
2023-01-13T12:05:51.265Z,97215.75
2023-01-13T12:08:38.397Z,97223.41
2023-01-13T12:11:24.390Z,97228.50
2023-01-13T12:14:44.508Z,97229.28
2023-01-13T12:17:42.864Z,97232.59
2023-01-13T12:20:32.232Z,97236.59
2023-01-13T12:23:07.486Z,97237.53
2023-01-13T12:25:42.704Z,97236.00
2023-01-13T12:28:39.816Z,97233.50
2023-01-13T12:31:09.346Z,97227.38
2023-01-13T12:34:17.528Z,97231.16
2023-01-13T12:37:27.912Z,97223.81
2023-01-13T12:40:20.437Z,97221.53
2023-01-13T12:43:24.228Z,97217.53
2023-01-13T12:45:51.130Z,97219.59
2023-01-13T12:48:49.552Z,97214.69
2023-01-13T12:51:23.918Z,97216.00
2023-01-13T12:53:52.582Z,97226.66
2023-01-13T12:56:36.354Z,97209.91
2023-01-13T12:59:21.221Z,97214.84
2023-01-13T13:02:10.315Z,97207.88
2023-01-13T13:04:52.887Z,97206.03
2023-01-13T13:07:44.178Z,97217.97
2023-01-13T13:10:31.411Z,97214.94
2023-01-13T13:13:18.318Z,97226.00
2023-01-13T13:16:37.317Z,97233.66
2023-01-13T13:19:21.154Z,97231.06
2023-01-13T13:22:12.733Z,97239.09
2023-01-13T13:25:03.768Z,97244.38
2023-01-13T13:27:42.645Z,97248.03
2023-01-13T13:30:48.591Z,97244.88
2023-01-13T13:33:53.253Z,97246.91
2023-01-13T13:37:13.917Z,97260.94
2023-01-13T13:40:02.095Z,97275.75
2023-01-13T13:42:56.515Z,97266.94
2023-01-13T13:45:45.339Z,97260.47
2023-01-13T13:48:30.561Z,97274.13
2023-01-13T13:51:16.484Z,97265.38
2023-01-13T13:53:43.221Z,97273.31
2023-01-13T13:56:22.892Z,97272.78
2023-01-13T13:58:50.381Z,97281.97
2023-01-13T14:01:30.170Z,97283.09
2023-01-13T14:04:23.307Z,97292.50
2023-01-13T14:06:57.422Z,97301.69
2023-01-13T14:09:28.565Z,97300.75
2023-01-13T14:12:03.782Z,97303.84
2023-01-13T14:14:30.663Z,97306.56
2023-01-13T14:16:58.460Z,97302.31
2023-01-13T14:19:33.032Z,97304.41
2023-01-13T14:22:05.458Z,97304.53
2023-01-13T14:24:32.881Z,97314.91
2023-01-13T14:27:30.346Z,97301.91
2023-01-13T14:30:00.596Z,97311.47
2023-01-13T14:32:36.328Z,97307.50
2023-01-13T14:35:06.736Z,97312.75
2023-01-13T14:37:40.049Z,97319.91
2023-01-13T14:40:33.319Z,97309.44
2023-01-13T14:43:01.345Z,96736.72
2023-01-13T14:45:30.360Z,97313.91
2023-01-13T14:48:00.423Z,97315.16
2023-01-13T14:50:31.456Z,97310.69
2023-01-13T14:53:00.570Z,97318.13
2023-01-13T14:55:34.243Z,97327.72
2023-01-13T14:58:21.691Z,97327.81
2023-01-13T15:00:50.842Z,97343.91
2023-01-13T15:03:21.079Z,97339.31
2023-01-13T15:05:54.165Z,97346.84
2023-01-13T15:08:35.729Z,97363.13
2023-01-13T15:11:08.181Z,97356.88
2023-01-13T15:13:45.416Z,97359.56
2023-01-13T15:16:23.002Z,97348.50
2023-01-13T15:18:49.848Z,97363.94
2023-01-13T15:21:18.099Z,97369.00
2023-01-13T15:23:47.091Z,97376.06
2023-01-13T15:26:22.735Z,97378.50
2023-01-13T15:28:51.418Z,97359.66
2023-01-13T15:31:19.066Z,97387.44
2023-01-13T15:33:45.941Z,97390.75
2023-01-13T15:36:31.259Z,97396.13
2023-01-13T15:39:00.623Z,97402.91
2023-01-13T15:41:46.482Z,97396.72
2023-01-13T15:44:34.160Z,97400.09
2023-01-13T15:47:06.418Z,97410.38
2023-01-13T15:49:46.094Z,97418.22
2023-01-13T15:52:25.791Z,97435.00
2023-01-13T15:54:53.812Z,97427.47
2023-01-13T15:57:28.136Z,97445.28
2023-01-13T16:00:02.474Z,97445.41
2023-01-13T16:02:30.829Z,97458.75
2023-01-13T16:04:57.553Z,97462.47
2023-01-13T16:07:25.813Z,97465.19
2023-01-13T16:09:53.053Z,97479.78
2023-01-13T16:12:20.017Z,97470.34
2023-01-13T16:14:46.883Z,97480.00
2023-01-13T16:17:24.748Z,97486.22
2023-01-13T16:19:51.827Z,97490.47
2023-01-13T16:22:18.844Z,97495.75
2023-01-13T16:24:45.851Z,97490.97
2023-01-13T16:27:19.968Z,97495.88
2023-01-13T16:29:48.200Z,97501.56
2023-01-13T16:32:16.801Z,97502.00
2023-01-13T16:34:43.842Z,97509.88
2023-01-13T16:37:24.490Z,97511.72
2023-01-13T16:39:53.891Z,97512.53
2023-01-13T16:42:21.614Z,97508.31
2023-01-13T16:44:49.740Z,97512.53
2023-01-13T16:47:17.916Z,97515.88
2023-01-13T16:49:45.368Z,97517.00
2023-01-13T16:52:12.271Z,97533.88
2023-01-13T16:54:39.133Z,97543.81
2023-01-13T16:57:07.644Z,97536.38
2023-01-13T16:59:34.446Z,97538.34
2023-01-13T17:02:01.972Z,97535.53
2023-01-13T17:04:28.785Z,97537.59
2023-01-13T17:07:04.292Z,97549.00
2023-01-13T17:09:31.382Z,97553.56
2023-01-13T17:11:58.960Z,97563.06
2023-01-13T17:14:26.353Z,97557.47
2023-01-13T17:16:58.948Z,97560.81
2023-01-13T17:19:25.817Z,97566.28
2023-01-13T17:21:52.910Z,97562.16
2023-01-13T17:24:20.220Z,97566.59
2023-01-13T17:26:50.127Z,97572.41
2023-01-13T17:29:22.003Z,97570.41
2023-01-13T17:31:50.654Z,97588.53
2023-01-13T17:34:18.211Z,97583.66
2023-01-13T17:36:45.023Z,97580.84
2023-01-13T17:39:21.977Z,97597.63
2023-01-13T17:41:49.595Z,97599.59
2023-01-13T17:44:18.843Z,97593.03
2023-01-13T17:46:46.565Z,97598.22
2023-01-13T17:49:16.678Z,97612.06
2023-01-13T17:51:44.701Z,97597.38
2023-01-13T17:54:11.978Z,97598.22
2023-01-13T17:56:41.118Z,97599.75
2023-01-13T17:59:12.412Z,97615.09
2023-01-13T18:01:40.183Z,97605.38
2023-01-13T18:04:13.758Z,97616.44
2023-01-13T18:06:40.511Z,97610.44
2023-01-13T18:09:07.325Z,97602.69
2023-01-13T18:11:34.083Z,97610.13
2023-01-13T18:14:00.916Z,97612.00
2023-01-13T18:16:31.003Z,97613.75
2023-01-13T18:19:19.303Z,97612.94
2023-01-13T18:22:05.942Z,97614.59
2023-01-13T18:24:51.634Z,97616.44
2023-01-13T18:27:27.937Z,97626.59
2023-01-13T18:29:58.352Z,97634.25
2023-01-13T18:32:32.678Z,97647.63
2023-01-13T18:35:06.385Z,97648.44
2023-01-13T18:37:35.874Z,97646.06
2023-01-13T18:40:03.710Z,97658.06
2023-01-13T18:42:49.015Z,97650.41
2023-01-13T18:45:15.760Z,97656.09
2023-01-13T18:47:42.451Z,97659.63
2023-01-13T18:50:12.243Z,97664.78
2023-01-13T18:52:39.354Z,97669.75
2023-01-13T18:55:06.710Z,97669.56
2023-01-13T18:57:35.347Z,97657.38
2023-01-13T19:00:03.575Z,97661.72
2023-01-13T19:02:31.419Z,97664.81
2023-01-13T19:04:58.196Z,97671.13
2023-01-13T19:07:28.386Z,97676.00
2023-01-13T19:09:56.051Z,97680.44
2023-01-13T19:12:26.202Z,97664.31
2023-01-13T19:14:55.418Z,97658.22
2023-01-13T19:17:24.567Z,97660.16
2023-01-13T19:19:54.631Z,97652.50
2023-01-13T19:22:27.252Z,97653.13
2023-01-13T19:24:54.523Z,97661.31
2023-01-13T19:27:22.350Z,97668.22
2023-01-13T19:29:52.391Z,97663.38
2023-01-13T19:32:21.981Z,97662.84
2023-01-13T19:34:51.028Z,97671.34
2023-01-13T19:37:19.302Z,97679.13
2023-01-13T19:39:46.283Z,97676.50
2023-01-13T19:42:32.433Z,97685.31
2023-01-13T19:45:18.081Z,97687.06
2023-01-13T19:47:45.912Z,97687.16
2023-01-13T19:50:13.960Z,97694.31
2023-01-13T19:52:42.560Z,97701.16
2023-01-13T19:55:12.206Z,97704.78
2023-01-13T19:57:40.161Z,97722.94
2023-01-13T20:00:09.814Z,97727.41
2023-01-13T20:02:36.991Z,97726.56
2023-01-13T20:05:06.495Z,97730.91
2023-01-13T20:07:35.174Z,97729.25
2023-01-13T20:10:02.481Z,97722.22
2023-01-13T20:12:29.696Z,97723.06
2023-01-13T20:14:56.665Z,97730.91
2023-01-13T20:17:25.426Z,97724.81
2023-01-13T20:19:52.669Z,97734.34
2023-01-13T20:22:19.588Z,97747.16
2023-01-13T20:24:46.426Z,97750.50
2023-01-13T20:27:13.136Z,97763.50
2023-01-13T20:29:39.843Z,97754.09
2023-01-13T20:32:06.630Z,97753.72
2023-01-13T20:34:33.576Z,97753.81
2023-01-13T20:37:00.474Z,97756.72
2023-01-13T20:39:27.817Z,97759.31
2023-01-13T20:42:14.316Z,97764.69
2023-01-13T20:44:41.745Z,97765.03
2023-01-13T20:47:08.557Z,97769.56
2023-01-13T20:49:38.534Z,97766.81
2023-01-13T20:52:09.153Z,97772.59
2023-01-13T20:54:40.945Z,97765.75
2023-01-13T20:57:10.573Z,97765.75
2023-01-13T20:59:38.710Z,97776.63
2023-01-13T21:02:11.861Z,97779.22
2023-01-13T21:04:39.156Z,97787.09
2023-01-13T21:07:06.545Z,97773.31
2023-01-13T21:09:33.416Z,97777.66
2023-01-13T21:12:18.783Z,97786.25
2023-01-13T21:15:04.046Z,97789.78
2023-01-13T21:17:49.729Z,97783.56
2023-01-13T21:20:16.634Z,97777.88
2023-01-13T21:22:48.746Z,97776.78
2023-01-13T21:25:17.477Z,97786.06
2023-01-13T21:27:44.300Z,97796.41
2023-01-13T21:30:14.654Z,97783.78
2023-01-13T21:32:44.290Z,97790.81
2023-01-13T21:35:13.031Z,97783.78
2023-01-13T21:37:42.181Z,97795.91
2023-01-13T21:40:12.130Z,97795.41
2023-01-13T21:42:57.428Z,97803.34
2023-01-13T21:45:42.853Z,97804.19
2023-01-13T21:48:09.705Z,97801.78
2023-01-13T21:50:38.123Z,97807.69
2023-01-13T21:53:07.149Z,97807.91
2023-01-13T21:55:36.594Z,97814.09
2023-01-13T21:58:15.378Z,97810.13
2023-01-13T22:00:44.345Z,97815.28
2023-01-13T22:03:14.583Z,97803.03
2023-01-13T22:05:41.598Z,97822.50
2023-01-13T22:08:08.583Z,97829.06
2023-01-13T22:10:35.751Z,97828.44
2023-01-13T22:13:24.219Z,97837.59
2023-01-13T22:15:51.061Z,97840.09
2023-01-13T22:18:18.110Z,97829.50
2023-01-13T22:20:45.409Z,97844.09
2023-01-13T22:23:12.418Z,97838.28
2023-01-13T22:25:39.354Z,97838.47
2023-01-13T22:28:08.880Z,97841.78
2023-01-13T22:30:35.600Z,97840.31
2023-01-13T22:33:02.301Z,97852.50
2023-01-13T22:35:29.031Z,97851.97
2023-01-13T22:37:55.717Z,97859.75
2023-01-13T22:40:22.487Z,97857.91
2023-01-13T22:42:49.251Z,97864.28
2023-01-13T22:45:16.118Z,97870.47
2023-01-13T22:47:42.891Z,97876.97
2023-01-13T22:50:12.337Z,97872.88
2023-01-13T22:52:39.271Z,97867.28
2023-01-13T22:55:06.861Z,97873.91
2023-01-13T22:57:36.379Z,97878.25
2023-01-13T23:00:11.648Z,97886.84
2023-01-13T23:02:38.915Z,97885.66
2023-01-13T23:05:06.138Z,97886.50
2023-01-13T23:07:33.012Z,97889.16
2023-01-13T23:09:59.829Z,97890.84
2023-01-13T23:12:26.640Z,97891.28
2023-01-13T23:14:54.411Z,97898.41
2023-01-13T23:17:21.169Z,97900.78
2023-01-13T23:19:47.872Z,97899.97
2023-01-13T23:22:15.465Z,97911.31
2023-01-13T23:24:42.172Z,97899.13
2023-01-13T23:27:08.875Z,97908.53
2023-01-13T23:29:35.598Z,97906.78
2023-01-13T23:32:02.329Z,97919.72
2023-01-13T23:34:29.106Z,97918.97
2023-01-13T23:36:55.822Z,97905.97
2023-01-13T23:39:23.947Z,97911.78
2023-01-13T23:41:51.452Z,97923.13
2023-01-13T23:44:18.160Z,97924.59
2023-01-13T23:46:44.898Z,97930.53
2023-01-13T23:49:11.606Z,97923.03
2023-01-13T23:51:38.305Z,97916.78
2023-01-13T23:54:05.103Z,97912.59
2023-01-13T23:56:32.016Z,97920.66
2023-01-13T23:58:59.568Z,97925.81
